LVLRG CYYG-CYQY
Flight info
| Callsign | LVLRG |
|---|---|
| Flight time | N/A |
| Altitude | 15000 |
| Route | TUDUK |
| Aircraft | B350/L-SBGRW/S |
Departure
| Time | 2026-04-11 23:50 |
|---|---|
| Airport | Charlottetown Airport (CYYG) |
Arrival
| Time | N/A |
|---|---|
| Airport | Sydney / J.A. Douglas McCurdy Airport (CYQY) |
| Time | Latitude | Longitude | Altitude | Speed | Heading |
|---|---|---|---|---|---|
| 2026-04-11 23:27 | 46.27964 | -63.13234 | 163 ft | 0 kts | 323° |
| 2026-04-11 23:47 | 46.27977 | -63.13225 | 163 ft | 5 kts | 72° |
| 2026-04-11 23:48 | 46.27964 | -63.13159 | 163 ft | 8 kts | 104° |
| 2026-04-11 23:48 | 46.27962 | -63.13088 | 163 ft | 7 kts | 109° |
| 2026-04-11 23:48 | 46.27944 | -63.13030 | 163 ft | 6 kts | 111° |
| 2026-04-11 23:48 | 46.27935 | -63.12977 | 163 ft | 5 kts | 94° |
| 2026-04-11 23:49 | 46.27938 | -63.12930 | 163 ft | 5 kts | 72° |
| 2026-04-11 23:49 | 46.27955 | -63.12874 | 164 ft | 10 kts | 66° |
| 2026-04-11 23:49 | 46.27992 | -63.12762 | 166 ft | 12 kts | 47° |
| 2026-04-11 23:49 | 46.28135 | -63.12710 | 164 ft | 50 kts | 7° |
| 2026-04-11 23:50 | 46.28703 | -63.12575 | 192 ft | 108 kts | 12° |
| 2026-04-11 23:50 | 46.29512 | -63.12304 | 546 ft | 124 kts | 8° |
| 2026-04-11 23:50 | 46.30391 | -63.11999 | 936 ft | 145 kts | 7° |
| 2026-04-11 23:50 | 46.31410 | -63.11668 | 1444 ft | 148 kts | 7° |
| 2026-04-11 23:51 | 46.32412 | -63.11284 | 1983 ft | 152 kts | 9° |
| 2026-04-11 23:51 | 46.33454 | -63.10799 | 2397 ft | 159 kts | 9° |
| 2026-04-11 23:51 | 46.34466 | -63.10302 | 3072 ft | 150 kts | 9° |
| 2026-04-11 23:51 | 46.35421 | -63.09562 | 3446 ft | 171 kts | 29° |
| 2026-04-11 23:52 | 46.36157 | -63.08120 | 3982 ft | 186 kts | 57° |
| 2026-04-11 23:52 | 46.36450 | -63.06239 | 4440 ft | 201 kts | 79° |
| 2026-04-11 23:52 | 46.36357 | -63.04179 | 4974 ft | 206 kts | 92° |
| 2026-04-11 23:52 | 46.36102 | -63.02182 | 5740 ft | 198 kts | 95° |
| 2026-04-11 23:53 | 46.35851 | -63.00192 | 6297 ft | 203 kts | 94° |
| 2026-04-11 23:53 | 46.35640 | -62.98183 | 6912 ft | 200 kts | 94° |
| 2026-04-11 23:53 | 46.35444 | -62.96200 | 7457 ft | 203 kts | 92° |
| 2026-04-11 23:53 | 46.35285 | -62.94122 | 7911 ft | 211 kts | 92° |
| 2026-04-11 23:54 | 46.35132 | -62.91996 | 8470 ft | 212 kts | 92° |
| 2026-04-11 23:54 | 46.35010 | -62.89872 | 9052 ft | 213 kts | 92° |
| 2026-04-11 23:54 | 46.34943 | -62.87702 | 9563 ft | 218 kts | 89° |
| 2026-04-11 23:54 | 46.34792 | -62.85506 | 10077 ft | 221 kts | 99° |
| 2026-04-11 23:55 | 46.34529 | -62.83306 | 10594 ft | 223 kts | 99° |
| 2026-04-11 23:55 | 46.34313 | -62.81082 | 11100 ft | 224 kts | 97° |
| 2026-04-11 23:55 | 46.34119 | -62.78836 | 11624 ft | 225 kts | 98° |
| 2026-04-11 23:55 | 46.33924 | -62.76576 | 12142 ft | 227 kts | 98° |
| 2026-04-11 23:56 | 46.33723 | -62.74302 | 12677 ft | 228 kts | 98° |
| 2026-04-11 23:56 | 46.33522 | -62.72017 | 13212 ft | 230 kts | 98° |
| 2026-04-11 23:56 | 46.33319 | -62.69715 | 13746 ft | 231 kts | 99° |
| 2026-04-11 23:56 | 46.33114 | -62.67407 | 14234 ft | 232 kts | 99° |
| 2026-04-11 23:57 | 46.32912 | -62.65112 | 14717 ft | 233 kts | 99° |
| 2026-04-11 23:57 | 46.32698 | -62.62722 | 14986 ft | 246 kts | 99° |
| 2026-04-11 23:57 | 46.32469 | -62.60191 | 14995 ft | 266 kts | 99° |
| 2026-04-11 23:57 | 46.32224 | -62.57458 | 14998 ft | 281 kts | 99° |
| 2026-04-11 23:58 | 46.31969 | -62.54589 | 15006 ft | 293 kts | 99° |
| 2026-04-11 23:58 | 46.31703 | -62.51624 | 15004 ft | 301 kts | 99° |
| 2026-04-11 23:58 | 46.31429 | -62.48593 | 15001 ft | 306 kts | 99° |
| 2026-04-11 23:58 | 46.31153 | -62.45520 | 14994 ft | 310 kts | 99° |
| 2026-04-11 23:59 | 46.30872 | -62.42424 | 14991 ft | 312 kts | 99° |
| 2026-04-11 23:59 | 46.30587 | -62.39300 | 14989 ft | 314 kts | 99° |
| 2026-04-11 23:59 | 46.30300 | -62.36165 | 14986 ft | 315 kts | 99° |
| 2026-04-11 23:59 | 46.30014 | -62.33017 | 14984 ft | 316 kts | 99° |
| 2026-04-12 00:00 | 46.29726 | -62.29866 | 14984 ft | 317 kts | 99° |
| 2026-04-12 00:00 | 46.29434 | -62.26701 | 14986 ft | 317 kts | 99° |
| 2026-04-12 00:00 | 46.29140 | -62.23543 | 14985 ft | 318 kts | 99° |
| 2026-04-12 00:00 | 46.28848 | -62.20360 | 14979 ft | 318 kts | 99° |
| 2026-04-12 00:01 | 46.28553 | -62.17200 | 14982 ft | 318 kts | 100° |
| 2026-04-12 00:01 | 46.28258 | -62.14032 | 14975 ft | 318 kts | 99° |
| 2026-04-12 00:01 | 46.27962 | -62.10858 | 14982 ft | 318 kts | 100° |
| 2026-04-12 00:01 | 46.27664 | -62.07696 | 14973 ft | 318 kts | 100° |
| 2026-04-12 00:02 | 46.27368 | -62.04526 | 14976 ft | 318 kts | 100° |
| 2026-04-12 00:02 | 46.27071 | -62.01396 | 14969 ft | 318 kts | 100° |
| 2026-04-12 00:02 | 46.26768 | -61.98188 | 14971 ft | 318 kts | 100° |
| 2026-04-12 00:02 | 46.26466 | -61.95013 | 14967 ft | 318 kts | 100° |
| 2026-04-12 00:03 | 46.26168 | -61.91886 | 14962 ft | 318 kts | 100° |
| 2026-04-12 00:03 | 46.25866 | -61.88713 | 14962 ft | 318 kts | 100° |
| 2026-04-12 00:03 | 46.25562 | -61.85541 | 14959 ft | 318 kts | 100° |
| 2026-04-12 00:03 | 46.25259 | -61.82375 | 14958 ft | 318 kts | 101° |
| 2026-04-12 00:04 | 46.24951 | -61.79197 | 14969 ft | 318 kts | 101° |
| 2026-04-12 00:04 | 46.24645 | -61.76024 | 14958 ft | 319 kts | 101° |
| 2026-04-12 00:04 | 46.24338 | -61.72852 | 14956 ft | 318 kts | 101° |
| 2026-04-12 00:04 | 46.24030 | -61.69689 | 14960 ft | 318 kts | 101° |
| 2026-04-12 00:05 | 46.23722 | -61.66514 | 14953 ft | 318 kts | 101° |
| 2026-04-12 00:05 | 46.23410 | -61.63345 | 14965 ft | 318 kts | 101° |
| 2026-04-12 00:05 | 46.23205 | -61.61245 | 14950 ft | 318 kts | 101° |
| 2026-04-12 00:05 | 46.22792 | -61.57044 | 14956 ft | 318 kts | 101° |
| 2026-04-12 00:06 | 46.22479 | -61.53878 | 14940 ft | 318 kts | 101° |
| 2026-04-12 00:06 | 46.22167 | -61.50714 | 14941 ft | 318 kts | 101° |
| 2026-04-12 00:06 | 46.21852 | -61.47553 | 14937 ft | 318 kts | 101° |
| 2026-04-12 00:06 | 46.21644 | -61.45450 | 14935 ft | 318 kts | 101° |
| 2026-04-12 00:07 | 46.21329 | -61.42286 | 14932 ft | 318 kts | 101° |
| 2026-04-12 00:07 | 46.21011 | -61.39120 | 14927 ft | 318 kts | 101° |
| 2026-04-12 00:07 | 46.20694 | -61.35943 | 14924 ft | 318 kts | 102° |
| 2026-04-12 00:07 | 46.20272 | -61.31748 | 14921 ft | 318 kts | 102° |
| 2026-04-12 00:08 | 46.20056 | -61.29613 | 14921 ft | 318 kts | 102° |
| 2026-04-12 00:08 | 46.19734 | -61.26452 | 14913 ft | 318 kts | 102° |
| 2026-04-12 00:08 | 46.19419 | -61.23319 | 14908 ft | 319 kts | 102° |
| 2026-04-12 00:08 | 46.19094 | -61.20114 | 14906 ft | 319 kts | 102° |
| 2026-04-12 00:09 | 46.18769 | -61.16947 | 14903 ft | 319 kts | 102° |
| 2026-04-12 00:09 | 46.18449 | -61.13825 | 14901 ft | 319 kts | 102° |
| 2026-04-12 00:09 | 46.18125 | -61.10665 | 14898 ft | 318 kts | 102° |
| 2026-04-12 00:09 | 46.17800 | -61.07505 | 14892 ft | 318 kts | 102° |
| 2026-04-12 00:10 | 46.17476 | -61.04347 | 14895 ft | 318 kts | 103° |
| 2026-04-12 00:10 | 46.17150 | -61.01192 | 14891 ft | 318 kts | 103° |
| 2026-04-12 00:10 | 46.16821 | -60.98029 | 14887 ft | 318 kts | 103° |
| 2026-04-12 00:10 | 46.16494 | -60.94886 | 14885 ft | 317 kts | 103° |
| 2026-04-12 00:11 | 46.16165 | -60.91730 | 14882 ft | 317 kts | 103° |
| 2026-04-12 00:11 | 46.15847 | -60.88695 | 14881 ft | 317 kts | 103° |